sensor_id;sensor_type;location;lat;lon;timestamp;temperature;humidity
5286;DHT22;2665;53.112;7.358;2023-07-22T00:00:32;12.20;99.90
5286;DHT22;2665;53.112;7.358;2023-07-22T00:02:58;12.20;99.90
5286;DHT22;2665;53.112;7.358;2023-07-22T00:05:23;12.20;99.90
5286;DHT22;2665;53.112;7.358;2023-07-22T00:07:52;12.20;99.90
5286;DHT22;2665;53.112;7.358;2023-07-22T00:10:18;12.20;99.90
5286;DHT22;2665;53.112;7.358;2023-07-22T00:12:44;12.20;99.90
5286;DHT22;2665;53.112;7.358;2023-07-22T00:15:09;12.20;99.90
5286;DHT22;2665;53.112;7.358;2023-07-22T00:17:39;12.10;99.90
5286;DHT22;2665;53.112;7.358;2023-07-22T00:20:05;12.20;99.90
5286;DHT22;2665;53.112;7.358;2023-07-22T00:22:32;12.20;99.90
5286;DHT22;2665;53.112;7.358;2023-07-22T00:24:58;12.20;99.90
5286;DHT22;2665;53.112;7.358;2023-07-22T00:27:26;12.20;1.00
5286;DHT22;2665;53.112;7.358;2023-07-22T00:29:52;12.20;1.00
5286;DHT22;2665;53.112;7.358;2023-07-22T00:32:17;12.20;1.00
5286;DHT22;2665;53.112;7.358;2023-07-22T00:34:43;12.20;1.00
5286;DHT22;2665;53.112;7.358;2023-07-22T00:37:08;12.20;1.00
5286;DHT22;2665;53.112;7.358;2023-07-22T00:39:34;12.30;1.00
5286;DHT22;2665;53.112;7.358;2023-07-22T00:41:59;12.30;1.00
5286;DHT22;2665;53.112;7.358;2023-07-22T00:44:25;12.30;1.00
5286;DHT22;2665;53.112;7.358;2023-07-22T00:46:54;12.30;1.00
5286;DHT22;2665;53.112;7.358;2023-07-22T00:49:22;12.30;1.00
5286;DHT22;2665;53.112;7.358;2023-07-22T00:51:49;12.30;1.00
5286;DHT22;2665;53.112;7.358;2023-07-22T00:54:14;12.30;99.90
5286;DHT22;2665;53.112;7.358;2023-07-22T00:56:41;12.30;99.90
5286;DHT22;2665;53.112;7.358;2023-07-22T00:59:07;12.30;99.90
5286;DHT22;2665;53.112;7.358;2023-07-22T01:01:33;12.30;99.90
5286;DHT22;2665;53.112;7.358;2023-07-22T01:03:58;12.30;99.90
5286;DHT22;2665;53.112;7.358;2023-07-22T01:06:26;12.30;99.90
5286;DHT22;2665;53.112;7.358;2023-07-22T01:08:54;12.30;99.90
5286;DHT22;2665;53.112;7.358;2023-07-22T01:11:20;12.30;99.90
5286;DHT22;2665;53.112;7.358;2023-07-22T01:13:45;12.30;99.90
5286;DHT22;2665;53.112;7.358;2023-07-22T01:16:11;12.20;99.90
5286;DHT22;2665;53.112;7.358;2023-07-22T01:18:38;12.10;99.90
5286;DHT22;2665;53.112;7.358;2023-07-22T01:21:03;12.10;99.90
5286;DHT22;2665;53.112;7.358;2023-07-22T01:23:31;12.00;99.90
5286;DHT22;2665;53.112;7.358;2023-07-22T01:25:58;11.90;99.90
5286;DHT22;2665;53.112;7.358;2023-07-22T01:28:24;11.90;99.90
5286;DHT22;2665;53.112;7.358;2023-07-22T01:30:49;11.80;99.90
5286;DHT22;2665;53.112;7.358;2023-07-22T01:33:15;11.80;99.90
5286;DHT22;2665;53.112;7.358;2023-07-22T01:35:41;11.80;99.90
5286;DHT22;2665;53.112;7.358;2023-07-22T01:38:06;11.70;99.90
5286;DHT22;2665;53.112;7.358;2023-07-22T01:40:34;11.70;99.90
5286;DHT22;2665;53.112;7.358;2023-07-22T01:43:00;11.70;99.90
5286;DHT22;2665;53.112;7.358;2023-07-22T01:45:25;11.60;99.90
5286;DHT22;2665;53.112;7.358;2023-07-22T01:47:51;11.60;99.90
5286;DHT22;2665;53.112;7.358;2023-07-22T01:50:16;11.60;99.90
5286;DHT22;2665;53.112;7.358;2023-07-22T01:52:44;11.60;99.90
5286;DHT22;2665;53.112;7.358;2023-07-22T01:55:11;11.60;99.90
5286;DHT22;2665;53.112;7.358;2023-07-22T01:57:37;11.50;99.90
5286;DHT22;2665;53.112;7.358;2023-07-22T02:00:05;11.50;99.90
5286;DHT22;2665;53.112;7.358;2023-07-22T02:02:31;11.40;1.00
5286;DHT22;2665;53.112;7.358;2023-07-22T02:04:56;11.40;1.00
5286;DHT22;2665;53.112;7.358;2023-07-22T02:07:22;11.40;1.00
5286;DHT22;2665;53.112;7.358;2023-07-22T02:09:51;11.40;1.00
5286;DHT22;2665;53.112;7.358;2023-07-22T02:12:17;11.40;1.00
5286;DHT22;2665;53.112;7.358;2023-07-22T02:14:43;11.40;1.00
5286;DHT22;2665;53.112;7.358;2023-07-22T02:17:09;11.40;1.00
5286;DHT22;2665;53.112;7.358;2023-07-22T02:19:34;11.40;1.00
5286;DHT22;2665;53.112;7.358;2023-07-22T02:22:00;11.40;1.00
5286;DHT22;2665;53.112;7.358;2023-07-22T02:24:26;11.40;1.00
5286;DHT22;2665;53.112;7.358;2023-07-22T02:26:51;11.40;1.00
5286;DHT22;2665;53.112;7.358;2023-07-22T02:29:17;11.30;1.00
5286;DHT22;2665;53.112;7.358;2023-07-22T02:31:45;11.30;1.00
5286;DHT22;2665;53.112;7.358;2023-07-22T02:34:11;11.30;1.00
5286;DHT22;2665;53.112;7.358;2023-07-22T02:36:37;11.30;1.00
5286;DHT22;2665;53.112;7.358;2023-07-22T02:39:03;11.30;1.00
5286;DHT22;2665;53.112;7.358;2023-07-22T02:41:29;11.30;1.00
5286;DHT22;2665;53.112;7.358;2023-07-22T02:43:54;11.30;1.00
5286;DHT22;2665;53.112;7.358;2023-07-22T02:46:20;11.30;1.00
5286;DHT22;2665;53.112;7.358;2023-07-22T02:48:45;11.20;1.00
5286;DHT22;2665;53.112;7.358;2023-07-22T02:51:11;11.20;1.00
5286;DHT22;2665;53.112;7.358;2023-07-22T02:53:37;11.20;1.00
5286;DHT22;2665;53.112;7.358;2023-07-22T02:56:04;11.20;1.00
5286;DHT22;2665;53.112;7.358;2023-07-22T02:58:30;11.10;1.00
5286;DHT22;2665;53.112;7.358;2023-07-22T03:00:55;11.10;1.00
5286;DHT22;2665;53.112;7.358;2023-07-22T03:03:23;11.10;1.00
5286;DHT22;2665;53.112;7.358;2023-07-22T03:05:48;11.10;1.00
5286;DHT22;2665;53.112;7.358;2023-07-22T03:08:15;11.10;1.00
5286;DHT22;2665;53.112;7.358;2023-07-22T03:10:40;11.00;1.00
5286;DHT22;2665;53.112;7.358;2023-07-22T03:13:06;11.00;1.00
5286;DHT22;2665;53.112;7.358;2023-07-22T03:15:32;10.90;1.00
5286;DHT22;2665;53.112;7.358;2023-07-22T03:17:58;10.90;1.00
5286;DHT22;2665;53.112;7.358;2023-07-22T03:20:25;10.90;1.00
5286;DHT22;2665;53.112;7.358;2023-07-22T03:22:51;10.90;1.00
5286;DHT22;2665;53.112;7.358;2023-07-22T03:25:17;10.90;1.00
5286;DHT22;2665;53.112;7.358;2023-07-22T03:27:43;10.90;1.00
5286;DHT22;2665;53.112;7.358;2023-07-22T03:30:14;10.80;1.00
5286;DHT22;2665;53.112;7.358;2023-07-22T03:32:41;10.80;1.00
5286;DHT22;2665;53.112;7.358;2023-07-22T03:35:08;10.80;1.00
5286;DHT22;2665;53.112;7.358;2023-07-22T03:37:35;10.80;1.00
5286;DHT22;2665;53.112;7.358;2023-07-22T03:40:02;10.80;1.00
5286;DHT22;2665;53.112;7.358;2023-07-22T03:42:28;10.80;1.00
5286;DHT22;2665;53.112;7.358;2023-07-22T03:44:54;10.80;1.00
5286;DHT22;2665;53.112;7.358;2023-07-22T03:47:20;10.80;1.00
5286;DHT22;2665;53.112;7.358;2023-07-22T03:49:45;10.80;1.00
5286;DHT22;2665;53.112;7.358;2023-07-22T03:52:11;10.90;1.00
5286;DHT22;2665;53.112;7.358;2023-07-22T03:54:39;10.90;1.00
5286;DHT22;2665;53.112;7.358;2023-07-22T03:57:05;10.90;1.00
5286;DHT22;2665;53.112;7.358;2023-07-22T03:59:31;10.90;1.00
5286;DHT22;2665;53.112;7.358;2023-07-22T04:01:57;10.90;1.00
5286;DHT22;2665;53.112;7.358;2023-07-22T04:04:22;10.90;1.00
5286;DHT22;2665;53.112;7.358;2023-07-22T04:06:48;11.00;1.00
5286;DHT22;2665;53.112;7.358;2023-07-22T04:09:14;11.00;1.00
5286;DHT22;2665;53.112;7.358;2023-07-22T04:11:39;11.00;1.00
5286;DHT22;2665;53.112;7.358;2023-07-22T04:14:05;11.00;1.00
5286;DHT22;2665;53.112;7.358;2023-07-22T04:16:30;11.00;1.00
5286;DHT22;2665;53.112;7.358;2023-07-22T04:18:56;11.10;1.00
5286;DHT22;2665;53.112;7.358;2023-07-22T04:21:22;11.10;1.00
5286;DHT22;2665;53.112;7.358;2023-07-22T04:23:47;11.10;1.00
5286;DHT22;2665;53.112;7.358;2023-07-22T04:26:14;11.10;1.00
5286;DHT22;2665;53.112;7.358;2023-07-22T04:28:40;11.20;1.00
5286;DHT22;2665;53.112;7.358;2023-07-22T04:31:05;11.20;1.00
5286;DHT22;2665;53.112;7.358;2023-07-22T04:33:31;11.30;1.00
5286;DHT22;2665;53.112;7.358;2023-07-22T04:35:59;11.30;1.00
5286;DHT22;2665;53.112;7.358;2023-07-22T04:38:25;11.40;1.00
5286;DHT22;2665;53.112;7.358;2023-07-22T04:40:51;11.40;1.00
5286;DHT22;2665;53.112;7.358;2023-07-22T04:43:16;11.50;1.00
5286;DHT22;2665;53.112;7.358;2023-07-22T04:45:44;11.60;1.00
5286;DHT22;2665;53.112;7.358;2023-07-22T04:48:14;11.70;1.00
5286;DHT22;2665;53.112;7.358;2023-07-22T04:50:40;11.80;1.00
5286;DHT22;2665;53.112;7.358;2023-07-22T04:53:06;11.80;1.00
5286;DHT22;2665;53.112;7.358;2023-07-22T04:55:32;11.90;1.00
5286;DHT22;2665;53.112;7.358;2023-07-22T04:57:58;12.00;1.00
5286;DHT22;2665;53.112;7.358;2023-07-22T05:00:25;12.10;1.00
5286;DHT22;2665;53.112;7.358;2023-07-22T05:02:50;12.10;1.00
5286;DHT22;2665;53.112;7.358;2023-07-22T05:05:18;12.20;1.00
5286;DHT22;2665;53.112;7.358;2023-07-22T05:07:43;12.20;1.00
5286;DHT22;2665;53.112;7.358;2023-07-22T05:10:10;12.30;1.00
5286;DHT22;2665;53.112;7.358;2023-07-22T05:12:38;12.30;1.00
5286;DHT22;2665;53.112;7.358;2023-07-22T05:15:05;12.40;1.00
5286;DHT22;2665;53.112;7.358;2023-07-22T05:17:31;12.40;1.00
5286;DHT22;2665;53.112;7.358;2023-07-22T05:19:57;12.50;1.00
5286;DHT22;2665;53.112;7.358;2023-07-22T05:22:23;12.50;1.00
5286;DHT22;2665;53.112;7.358;2023-07-22T05:24:49;12.60;1.00
5286;DHT22;2665;53.112;7.358;2023-07-22T05:27:16;12.60;1.00
5286;DHT22;2665;53.112;7.358;2023-07-22T05:29:41;12.80;1.00
5286;DHT22;2665;53.112;7.358;2023-07-22T05:32:07;12.90;1.00
5286;DHT22;2665;53.112;7.358;2023-07-22T05:34:33;12.90;1.00
5286;DHT22;2665;53.112;7.358;2023-07-22T05:36:58;13.00;1.00
5286;DHT22;2665;53.112;7.358;2023-07-22T05:39:24;13.00;1.00
5286;DHT22;2665;53.112;7.358;2023-07-22T05:41:50;13.10;1.00
5286;DHT22;2665;53.112;7.358;2023-07-22T05:44:16;13.10;1.00
5286;DHT22;2665;53.112;7.358;2023-07-22T05:46:41;13.10;1.00
5286;DHT22;2665;53.112;7.358;2023-07-22T05:49:08;13.20;1.00
5286;DHT22;2665;53.112;7.358;2023-07-22T05:51:34;13.20;1.00
5286;DHT22;2665;53.112;7.358;2023-07-22T05:53:59;13.30;1.00
5286;DHT22;2665;53.112;7.358;2023-07-22T05:56:25;13.40;1.00
5286;DHT22;2665;53.112;7.358;2023-07-22T05:58:51;13.40;1.00
5286;DHT22;2665;53.112;7.358;2023-07-22T06:01:17;13.60;1.00
5286;DHT22;2665;53.112;7.358;2023-07-22T06:03:42;13.60;99.90
5286;DHT22;2665;53.112;7.358;2023-07-22T06:06:09;13.70;99.90
5286;DHT22;2665;53.112;7.358;2023-07-22T06:08:35;13.70;99.90
5286;DHT22;2665;53.112;7.358;2023-07-22T06:11:00;13.70;99.90
5286;DHT22;2665;53.112;7.358;2023-07-22T06:13:26;13.70;99.90
5286;DHT22;2665;53.112;7.358;2023-07-22T06:15:52;13.80;99.90
5286;DHT22;2665;53.112;7.358;2023-07-22T06:18:18;13.80;99.90
5286;DHT22;2665;53.112;7.358;2023-07-22T06:20:44;13.90;99.90
5286;DHT22;2665;53.112;7.358;2023-07-22T06:23:10;13.90;99.90
5286;DHT22;2665;53.112;7.358;2023-07-22T06:25:35;14.00;99.90
5286;DHT22;2665;53.112;7.358;2023-07-22T06:28:01;14.00;99.90
5286;DHT22;2665;53.112;7.358;2023-07-22T06:30:27;14.10;99.90
5286;DHT22;2665;53.112;7.358;2023-07-22T06:32:53;14.10;95.00
5286;DHT22;2665;53.112;7.358;2023-07-22T06:35:18;14.20;99.90
5286;DHT22;2665;53.112;7.358;2023-07-22T06:37:44;14.40;99.90
5286;DHT22;2665;53.112;7.358;2023-07-22T06:40:10;14.40;96.70
5286;DHT22;2665;53.112;7.358;2023-07-22T06:42:36;14.50;1.00
5286;DHT22;2665;53.112;7.358;2023-07-22T06:45:01;14.60;10.00
5286;DHT22;2665;53.112;7.358;2023-07-22T06:47:27;14.70;1.00
5286;DHT22;2665;53.112;7.358;2023-07-22T06:49:53;14.80;1.00
5286;DHT22;2665;53.112;7.358;2023-07-22T06:52:18;14.80;98.70
5286;DHT22;2665;53.112;7.358;2023-07-22T06:54:44;14.90;1.00
5286;DHT22;2665;53.112;7.358;2023-07-22T06:57:10;15.00;1.00
5286;DHT22;2665;53.112;7.358;2023-07-22T06:59:35;15.00;99.90
5286;DHT22;2665;53.112;7.358;2023-07-22T07:02:03;15.10;99.90
5286;DHT22;2665;53.112;7.358;2023-07-22T07:04:29;15.10;99.90
5286;DHT22;2665;53.112;7.358;2023-07-22T07:06:54;15.20;99.90
5286;DHT22;2665;53.112;7.358;2023-07-22T07:09:20;15.20;99.90
5286;DHT22;2665;53.112;7.358;2023-07-22T07:11:46;15.30;99.90
5286;DHT22;2665;53.112;7.358;2023-07-22T07:14:12;15.30;1.00
5286;DHT22;2665;53.112;7.358;2023-07-22T07:16:38;15.30;99.90
5286;DHT22;2665;53.112;7.358;2023-07-22T07:19:03;15.30;1.00
5286;DHT22;2665;53.112;7.358;2023-07-22T07:21:29;15.40;1.00
5286;DHT22;2665;53.112;7.358;2023-07-22T07:23:55;15.40;1.00
5286;DHT22;2665;53.112;7.358;2023-07-22T07:26:21;15.50;99.90
5286;DHT22;2665;53.112;7.358;2023-07-22T07:28:48;15.60;99.90
5286;DHT22;2665;53.112;7.358;2023-07-22T07:31:15;15.70;99.90
5286;DHT22;2665;53.112;7.358;2023-07-22T07:33:40;15.90;99.90
5286;DHT22;2665;53.112;7.358;2023-07-22T07:36:06;16.00;1.00
5286;DHT22;2665;53.112;7.358;2023-07-22T07:38:32;16.10;99.90
5286;DHT22;2665;53.112;7.358;2023-07-22T07:41:03;16.30;1.00
5286;DHT22;2665;53.112;7.358;2023-07-22T07:43:29;16.30;1.00
5286;DHT22;2665;53.112;7.358;2023-07-22T07:46:21;16.40;99.90
5286;DHT22;2665;53.112;7.358;2023-07-22T07:48:49;16.50;99.90
5286;DHT22;2665;53.112;7.358;2023-07-22T07:51:15;16.60;59.50
5286;DHT22;2665;53.112;7.358;2023-07-22T07:53:41;16.70;1.00
5286;DHT22;2665;53.112;7.358;2023-07-22T07:56:08;16.70;99.90
5286;DHT22;2665;53.112;7.358;2023-07-22T07:58:34;16.70;18.90
5286;DHT22;2665;53.112;7.358;2023-07-22T08:01:00;16.70;1.00
5286;DHT22;2665;53.112;7.358;2023-07-22T08:03:25;16.60;1.00
5286;DHT22;2665;53.112;7.358;2023-07-22T08:05:51;16.50;1.00
5286;DHT22;2665;53.112;7.358;2023-07-22T08:08:16;16.50;1.00
5286;DHT22;2665;53.112;7.358;2023-07-22T08:10:43;16.50;1.00
5286;DHT22;2665;53.112;7.358;2023-07-22T08:13:10;16.60;1.00
5286;DHT22;2665;53.112;7.358;2023-07-22T08:15:35;16.60;1.00
5286;DHT22;2665;53.112;7.358;2023-07-22T08:18:01;16.70;1.00
5286;DHT22;2665;53.112;7.358;2023-07-22T08:20:27;16.80;1.00
5286;DHT22;2665;53.112;7.358;2023-07-22T08:22:53;16.90;1.00
5286;DHT22;2665;53.112;7.358;2023-07-22T08:25:18;16.90;1.00
5286;DHT22;2665;53.112;7.358;2023-07-22T08:27:44;17.00;1.00
5286;DHT22;2665;53.112;7.358;2023-07-22T08:30:11;17.10;1.00
5286;DHT22;2665;53.112;7.358;2023-07-22T08:32:36;17.10;1.00
5286;DHT22;2665;53.112;7.358;2023-07-22T08:35:02;17.10;99.90
5286;DHT22;2665;53.112;7.358;2023-07-22T08:37:28;17.20;99.90
5286;DHT22;2665;53.112;7.358;2023-07-22T08:39:53;17.20;99.90
5286;DHT22;2665;53.112;7.358;2023-07-22T08:42:20;17.20;99.90
5286;DHT22;2665;53.112;7.358;2023-07-22T08:44:48;17.20;99.90
5286;DHT22;2665;53.112;7.358;2023-07-22T08:47:16;17.30;57.70
5286;DHT22;2665;53.112;7.358;2023-07-22T08:49:46;17.40;99.90
5286;DHT22;2665;53.112;7.358;2023-07-22T08:52:15;17.60;99.90
5286;DHT22;2665;53.112;7.358;2023-07-22T08:54:41;17.80;91.50
5286;DHT22;2665;53.112;7.358;2023-07-22T08:57:09;18.00;47.10
5286;DHT22;2665;53.112;7.358;2023-07-22T08:59:35;18.10;99.90
5286;DHT22;2665;53.112;7.358;2023-07-22T09:02:01;18.20;1.00
5286;DHT22;2665;53.112;7.358;2023-07-22T09:04:27;18.30;1.00
5286;DHT22;2665;53.112;7.358;2023-07-22T09:06:53;18.40;1.00
5286;DHT22;2665;53.112;7.358;2023-07-22T09:09:21;18.50;99.90
5286;DHT22;2665;53.112;7.358;2023-07-22T09:11:48;18.60;99.90
5286;DHT22;2665;53.112;7.358;2023-07-22T09:14:13;18.80;99.90
5286;DHT22;2665;53.112;7.358;2023-07-22T09:16:39;18.90;99.90
5286;DHT22;2665;53.112;7.358;2023-07-22T09:19:05;18.80;99.90
5286;DHT22;2665;53.112;7.358;2023-07-22T09:21:31;18.70;99.90
5286;DHT22;2665;53.112;7.358;2023-07-22T09:24:01;18.70;99.90
5286;DHT22;2665;53.112;7.358;2023-07-22T09:26:26;18.60;99.90
5286;DHT22;2665;53.112;7.358;2023-07-22T09:28:57;18.70;99.90
5286;DHT22;2665;53.112;7.358;2023-07-22T09:31:25;18.80;99.90
5286;DHT22;2665;53.112;7.358;2023-07-22T09:33:51;18.80;99.90
5286;DHT22;2665;53.112;7.358;2023-07-22T09:36:19;18.70;99.90
5286;DHT22;2665;53.112;7.358;2023-07-22T09:38:45;18.60;1.00
5286;DHT22;2665;53.112;7.358;2023-07-22T09:41:11;18.50;1.00
5286;DHT22;2665;53.112;7.358;2023-07-22T09:43:38;18.50;1.00
5286;DHT22;2665;53.112;7.358;2023-07-22T09:46:10;18.60;1.00
5286;DHT22;2665;53.112;7.358;2023-07-22T09:48:43;18.60;1.00
5286;DHT22;2665;53.112;7.358;2023-07-22T09:51:16;18.60;1.00
5286;DHT22;2665;53.112;7.358;2023-07-22T09:53:46;18.50;1.00
5286;DHT22;2665;53.112;7.358;2023-07-22T09:56:12;18.40;1.00
5286;DHT22;2665;53.112;7.358;2023-07-22T09:58:39;18.30;1.00
5286;DHT22;2665;53.112;7.358;2023-07-22T10:01:05;18.40;1.00
5286;DHT22;2665;53.112;7.358;2023-07-22T10:03:33;18.40;1.00
5286;DHT22;2665;53.112;7.358;2023-07-22T10:06:03;18.40;1.00
5286;DHT22;2665;53.112;7.358;2023-07-22T10:08:34;18.40;1.00
5286;DHT22;2665;53.112;7.358;2023-07-22T10:11:01;18.40;1.00
5286;DHT22;2665;53.112;7.358;2023-07-22T10:13:28;18.30;1.00
5286;DHT22;2665;53.112;7.358;2023-07-22T10:15:54;18.20;1.00
5286;DHT22;2665;53.112;7.358;2023-07-22T10:18:21;18.10;1.00
5286;DHT22;2665;53.112;7.358;2023-07-22T10:20:47;18.10;1.00
5286;DHT22;2665;53.112;7.358;2023-07-22T10:23:13;18.10;1.00
5286;DHT22;2665;53.112;7.358;2023-07-22T10:25:40;18.10;1.00
5286;DHT22;2665;53.112;7.358;2023-07-22T10:28:06;18.10;1.00
5286;DHT22;2665;53.112;7.358;2023-07-22T10:30:33;18.10;1.00
5286;DHT22;2665;53.112;7.358;2023-07-22T10:32:59;18.10;1.00
5286;DHT22;2665;53.112;7.358;2023-07-22T10:38:09;18.10;1.00
5286;DHT22;2665;53.112;7.358;2023-07-22T10:43:11;17.90;1.00
5286;DHT22;2665;53.112;7.358;2023-07-22T10:45:41;17.80;1.00
5286;DHT22;2665;53.112;7.358;2023-07-22T10:48:12;17.80;1.00
5286;DHT22;2665;53.112;7.358;2023-07-22T10:50:46;17.70;1.00
5286;DHT22;2665;53.112;7.358;2023-07-22T11:12:02;17.60;1.00
5286;DHT22;2665;53.112;7.358;2023-07-22T11:14:33;17.60;1.00
5286;DHT22;2665;53.112;7.358;2023-07-22T11:17:03;17.70;1.00
5286;DHT22;2665;53.112;7.358;2023-07-22T11:19:30;17.70;1.00
5286;DHT22;2665;53.112;7.358;2023-07-22T11:21:56;17.80;1.00
5286;DHT22;2665;53.112;7.358;2023-07-22T11:24:23;17.90;1.00
5286;DHT22;2665;53.112;7.358;2023-07-22T11:26:50;17.90;1.00
5286;DHT22;2665;53.112;7.358;2023-07-22T11:29:16;18.00;1.00
5286;DHT22;2665;53.112;7.358;2023-07-22T11:31:46;18.00;1.00
5286;DHT22;2665;53.112;7.358;2023-07-22T11:34:13;18.00;1.00
5286;DHT22;2665;53.112;7.358;2023-07-22T11:36:40;18.00;1.00
5286;DHT22;2665;53.112;7.358;2023-07-22T11:39:08;18.00;1.00
5286;DHT22;2665;53.112;7.358;2023-07-22T11:41:35;18.00;1.00
5286;DHT22;2665;53.112;7.358;2023-07-22T11:44:02;17.90;1.00
5286;DHT22;2665;53.112;7.358;2023-07-22T11:46:28;17.80;1.00
5286;DHT22;2665;53.112;7.358;2023-07-22T11:48:55;17.80;1.00
5286;DHT22;2665;53.112;7.358;2023-07-22T11:51:23;17.80;1.00
5286;DHT22;2665;53.112;7.358;2023-07-22T11:53:53;17.70;1.00
5286;DHT22;2665;53.112;7.358;2023-07-22T11:56:26;17.60;1.00
5286;DHT22;2665;53.112;7.358;2023-07-22T11:58:56;17.50;1.00
5286;DHT22;2665;53.112;7.358;2023-07-22T12:01:23;17.30;1.00
5286;DHT22;2665;53.112;7.358;2023-07-22T12:03:49;17.20;1.00
5286;DHT22;2665;53.112;7.358;2023-07-22T12:06:20;17.10;1.00
5286;DHT22;2665;53.112;7.358;2023-07-22T12:08:51;17.00;1.00
5286;DHT22;2665;53.112;7.358;2023-07-22T12:11:18;16.90;1.00
5286;DHT22;2665;53.112;7.358;2023-07-22T12:13:45;16.80;1.70
5286;DHT22;2665;53.112;7.358;2023-07-22T12:16:12;16.70;11.50
5286;DHT22;2665;53.112;7.358;2023-07-22T12:18:45;16.60;42.50
5286;DHT22;2665;53.112;7.358;2023-07-22T12:21:11;16.60;93.00
5286;DHT22;2665;53.112;7.358;2023-07-22T12:23:38;16.50;99.90
5286;DHT22;2665;53.112;7.358;2023-07-22T12:26:04;16.40;99.90
5286;DHT22;2665;53.112;7.358;2023-07-22T12:30:56;16.40;99.90
5286;DHT22;2665;53.112;7.358;2023-07-22T12:33:25;16.30;99.90
5286;DHT22;2665;53.112;7.358;2023-07-22T12:35:52;16.20;1.00
5286;DHT22;2665;53.112;7.358;2023-07-22T12:38:18;16.10;1.00
5286;DHT22;2665;53.112;7.358;2023-07-22T12:40:44;15.90;1.00
5286;DHT22;2665;53.112;7.358;2023-07-22T12:43:09;15.80;1.00
5286;DHT22;2665;53.112;7.358;2023-07-22T12:45:35;15.70;1.00
5286;DHT22;2665;53.112;7.358;2023-07-22T12:48:01;15.60;1.00
5286;DHT22;2665;53.112;7.358;2023-07-22T12:50:28;15.40;1.00
5286;DHT22;2665;53.112;7.358;2023-07-22T12:52:53;15.40;56.60
5286;DHT22;2665;53.112;7.358;2023-07-22T12:55:19;15.40;1.00
5286;DHT22;2665;53.112;7.358;2023-07-22T12:57:45;15.30;56.10
5286;DHT22;2665;53.112;7.358;2023-07-22T13:00:11;15.40;99.90
5286;DHT22;2665;53.112;7.358;2023-07-22T13:02:37;15.50;1.00
5286;DHT22;2665;53.112;7.358;2023-07-22T13:05:03;15.60;1.00
5286;DHT22;2665;53.112;7.358;2023-07-22T13:07:31;15.60;90.90
5286;DHT22;2665;53.112;7.358;2023-07-22T13:09:57;15.70;99.90
5286;DHT22;2665;53.112;7.358;2023-07-22T13:12:24;15.80;99.90
5286;DHT22;2665;53.112;7.358;2023-07-22T13:14:50;15.90;1.00
5286;DHT22;2665;53.112;7.358;2023-07-22T13:17:15;16.00;1.00
5286;DHT22;2665;53.112;7.358;2023-07-22T13:19:41;16.00;1.00
5286;DHT22;2665;53.112;7.358;2023-07-22T13:22:07;16.00;1.00
5286;DHT22;2665;53.112;7.358;2023-07-22T13:24:32;16.00;1.00
5286;DHT22;2665;53.112;7.358;2023-07-22T13:26:58;16.00;1.00
5286;DHT22;2665;53.112;7.358;2023-07-22T13:29:24;16.00;99.90
5286;DHT22;2665;53.112;7.358;2023-07-22T13:31:49;16.20;5.10
5286;DHT22;2665;53.112;7.358;2023-07-22T13:34:15;16.30;1.00
5286;DHT22;2665;53.112;7.358;2023-07-22T13:36:40;16.40;99.90
5286;DHT22;2665;53.112;7.358;2023-07-22T13:39:06;16.50;99.90
5286;DHT22;2665;53.112;7.358;2023-07-22T13:41:31;16.60;1.00
5286;DHT22;2665;53.112;7.358;2023-07-22T13:43:57;16.70;1.00
5286;DHT22;2665;53.112;7.358;2023-07-22T13:46:23;16.70;1.00
5286;DHT22;2665;53.112;7.358;2023-07-22T13:48:48;16.60;1.00
5286;DHT22;2665;53.112;7.358;2023-07-22T13:51:14;16.50;1.00
5286;DHT22;2665;53.112;7.358;2023-07-22T13:53:39;16.40;1.00
5286;DHT22;2665;53.112;7.358;2023-07-22T13:56:05;16.30;1.00
5286;DHT22;2665;53.112;7.358;2023-07-22T13:58:31;16.20;1.00
5286;DHT22;2665;53.112;7.358;2023-07-22T14:00:57;16.10;99.90
5286;DHT22;2665;53.112;7.358;2023-07-22T14:03:22;16.00;1.00
5286;DHT22;2665;53.112;7.358;2023-07-22T14:05:48;15.90;99.90
5286;DHT22;2665;53.112;7.358;2023-07-22T14:08:14;15.80;1.00
5286;DHT22;2665;53.112;7.358;2023-07-22T14:10:39;15.60;99.90
5286;DHT22;2665;53.112;7.358;2023-07-22T14:13:05;15.40;56.50
5286;DHT22;2665;53.112;7.358;2023-07-22T14:15:30;15.40;1.00
5286;DHT22;2665;53.112;7.358;2023-07-22T14:17:56;15.40;1.00
5286;DHT22;2665;53.112;7.358;2023-07-22T14:20:22;15.40;1.00
5286;DHT22;2665;53.112;7.358;2023-07-22T14:22:48;15.40;1.00
5286;DHT22;2665;53.112;7.358;2023-07-22T14:25:15;15.50;1.00
5286;DHT22;2665;53.112;7.358;2023-07-22T14:27:41;15.50;1.00
5286;DHT22;2665;53.112;7.358;2023-07-22T14:30:08;15.60;1.00
5286;DHT22;2665;53.112;7.358;2023-07-22T14:32:34;15.60;1.00
5286;DHT22;2665;53.112;7.358;2023-07-22T14:35:00;15.70;1.00
5286;DHT22;2665;53.112;7.358;2023-07-22T14:37:25;15.60;1.00
5286;DHT22;2665;53.112;7.358;2023-07-22T14:39:51;15.70;1.00
5286;DHT22;2665;53.112;7.358;2023-07-22T14:42:17;15.70;99.90
5286;DHT22;2665;53.112;7.358;2023-07-22T14:44:42;15.70;99.90
5286;DHT22;2665;53.112;7.358;2023-07-22T14:47:08;15.60;99.90
5286;DHT22;2665;53.112;7.358;2023-07-22T14:49:33;15.70;99.90
5286;DHT22;2665;53.112;7.358;2023-07-22T14:51:59;15.70;99.90
5286;DHT22;2665;53.112;7.358;2023-07-22T14:54:24;15.70;99.90
5286;DHT22;2665;53.112;7.358;2023-07-22T14:56:50;15.80;99.90
5286;DHT22;2665;53.112;7.358;2023-07-22T14:59:16;15.90;99.90
5286;DHT22;2665;53.112;7.358;2023-07-22T15:01:42;15.90;99.90
5286;DHT22;2665;53.112;7.358;2023-07-22T15:04:08;16.00;99.90
5286;DHT22;2665;53.112;7.358;2023-07-22T15:06:34;16.00;99.90
5286;DHT22;2665;53.112;7.358;2023-07-22T15:09:02;16.00;99.90
5286;DHT22;2665;53.112;7.358;2023-07-22T15:11:33;16.00;38.80
5286;DHT22;2665;53.112;7.358;2023-07-22T15:13:59;16.00;99.90
5286;DHT22;2665;53.112;7.358;2023-07-22T15:16:24;16.10;40.90
5286;DHT22;2665;53.112;7.358;2023-07-22T15:18:50;16.10;1.00
5286;DHT22;2665;53.112;7.358;2023-07-22T15:21:16;16.10;1.00
5286;DHT22;2665;53.112;7.358;2023-07-22T15:23:41;16.20;1.00
5286;DHT22;2665;53.112;7.358;2023-07-22T15:26:07;16.20;1.00
5286;DHT22;2665;53.112;7.358;2023-07-22T15:28:33;16.20;99.90
5286;DHT22;2665;53.112;7.358;2023-07-22T15:30:58;16.20;47.10
5286;DHT22;2665;53.112;7.358;2023-07-22T15:33:24;16.20;99.90
5286;DHT22;2665;53.112;7.358;2023-07-22T15:35:51;16.20;99.90
5286;DHT22;2665;53.112;7.358;2023-07-22T15:38:17;16.20;1.00
5286;DHT22;2665;53.112;7.358;2023-07-22T15:40:42;16.20;44.00
5286;DHT22;2665;53.112;7.358;2023-07-22T15:43:08;16.20;99.90
5286;DHT22;2665;53.112;7.358;2023-07-22T15:45:34;16.30;1.00
5286;DHT22;2665;53.112;7.358;2023-07-22T15:48:00;16.20;1.00
5286;DHT22;2665;53.112;7.358;2023-07-22T15:50:28;16.20;1.00
5286;DHT22;2665;53.112;7.358;2023-07-22T15:52:53;16.20;13.90
5286;DHT22;2665;53.112;7.358;2023-07-22T15:55:19;16.20;99.90
5286;DHT22;2665;53.112;7.358;2023-07-22T15:57:48;16.10;99.90
5286;DHT22;2665;53.112;7.358;2023-07-22T16:00:14;16.10;1.00
5286;DHT22;2665;53.112;7.358;2023-07-22T16:02:39;16.00;1.00
5286;DHT22;2665;53.112;7.358;2023-07-22T16:05:06;15.90;1.00
5286;DHT22;2665;53.112;7.358;2023-07-22T16:07:33;15.80;1.00
5286;DHT22;2665;53.112;7.358;2023-07-22T16:09:59;15.80;1.00
5286;DHT22;2665;53.112;7.358;2023-07-22T16:12:26;15.60;75.50
5286;DHT22;2665;53.112;7.358;2023-07-22T16:14:51;15.50;99.90
5286;DHT22;2665;53.112;7.358;2023-07-22T16:17:17;15.40;99.90
5286;DHT22;2665;53.112;7.358;2023-07-22T16:19:42;15.30;99.90
5286;DHT22;2665;53.112;7.358;2023-07-22T16:22:08;15.20;1.00
5286;DHT22;2665;53.112;7.358;2023-07-22T16:24:35;15.20;1.00
5286;DHT22;2665;53.112;7.358;2023-07-22T16:27:01;15.20;1.00
5286;DHT22;2665;53.112;7.358;2023-07-22T16:29:26;15.20;1.00
5286;DHT22;2665;53.112;7.358;2023-07-22T16:31:52;15.30;1.00